Silver Lake, MN

5:23 PM CDT on May 04, 2015 (GMT -0500)
Hutchinson High School | | Change Station
CLOSE
Current Station
Personal Weather Station
Location: Hutchinson, MN
Elevation: 1060 ft
Nearby Weather Stations

Elev 1060 ft 44.88 °N, 94.39 °W | Updated 3 minutes ago

Partly Cloudy
Partly Cloudy
68.4 °F
Feels Like 68.4 °F
N
5.0
Wind Variable Wind from North
Gusts 6.0 mph

Today
High -- | Low -- °F
--% Chance of Precip.
Yesterday
High -- | Low -- °F
Precip. -- in
6:02 AM 8:25 PM
Full, 99% visible
Pressure 30.18 in
Visibility 10.0 miles
Clouds Clear
Dew Point 34 °F
Humidity 28%
Rainfall 0.00 in
Snow Depth Not available.
UV 4 out of 12
Pollen 11.00 out of 12
Air Quality Not available.
Flu Activity Sporadic
METAR KHCD 042212Z AUTO 02005KT 10SM CLR 21/02 A3018 RMK AO2 T02130017

More Conditions Fewer Conditions

Pressure 30.18 in
Visibility 10.0 miles
Clouds Clear
Dew Point 34 °F
Humidity 28%
Rainfall 0.00 in
Snow Depth Not available.
UV 4 out of 12
Pollen 11.00 out of 12
Air Quality Not available.
Flu Activity Sporadic
METAR KHCD 042212Z AUTO 02005KT 10SM CLR 21/02 A3018 RMK AO2 T02130017

More Conditions Fewer Conditions

Nepal has a long way to go to dig out and rebuild from a devastating earthquake. We have teamed up with several charities and organizations to make contributing to the relief effort as easy as possible.
How you can help: Portlight Strategies | Red Cross

10-Day Weather Forecast

Almanac

Astronomy

May. 04, 2015 Rise Set
Actual Time
Civil Twilight
Nautical Twilight
Astronomical Twilight
Moon
Length of Visible Light
Length of Day
Tomorrow will be .
, % of the Moon is Illuminated

Today's Extremes

State Highs State Lows

Community

WunderPhotos

Upload Photos

1,818,717 photos uploaded!

WunderBlogs® & News

Nearby

Air Quality

  Air Quality AQ Index Pollutant
Not available.

Snow Depth

Station Depth Elevation

Earthquake Activity

City Distance Mag. Time & Date
Minimum magnitude displayed is 2.5.

Coastal Water Temperatures

Place Temperature

Stations

Nearby Weather Stations

Station Location Temp. Windchill Dew Point Humidity Wind Precip. Elev Updated Type